createdAt,value
2023-02-14T00:01:30.423Z,98819.19
2023-02-14T00:04:00.638Z,98819.47
2023-02-14T00:06:27.835Z,98824.94
2023-02-14T00:08:56.720Z,98824.63
2023-02-14T00:11:23.276Z,98829.88
2023-02-14T00:14:10.974Z,98826.13
2023-02-14T00:16:37.571Z,98822.47
2023-02-14T00:19:06.779Z,98815.09
2023-02-14T00:21:36.192Z,98818.50
2023-02-14T00:24:04.910Z,98823.44
2023-02-14T00:26:31.527Z,98821.38
2023-02-14T00:29:00.287Z,98830.56
2023-02-14T00:31:29.531Z,98823.16
2023-02-14T00:33:58.543Z,98817.03
2023-02-14T00:36:27.391Z,98815.25
2023-02-14T00:38:53.936Z,98804.91
2023-02-14T00:41:23.333Z,98803.75
2023-02-14T00:43:52.146Z,98809.81
2023-02-14T00:46:23.362Z,98815.25
2023-02-14T00:48:50.494Z,98815.94
2023-02-14T00:51:22.604Z,98808.88
2023-02-14T00:53:53.004Z,98813.41
2023-02-14T00:56:20.536Z,98817.78
2023-02-14T00:58:47.531Z,98812.25
2023-02-14T01:01:17.886Z,98808.34
2023-02-14T01:03:47.588Z,98816.41
2023-02-14T01:06:14.198Z,98815.41
2023-02-14T01:08:43.034Z,98823.56
2023-02-14T01:11:16.035Z,98818.53
2023-02-14T01:13:43.038Z,98829.63
2023-02-14T01:16:12.846Z,98832.53
2023-02-14T01:18:39.804Z,98831.53
2023-02-14T01:21:16.463Z,98833.91
2023-02-14T01:23:43.960Z,98826.88
2023-02-14T01:26:12.395Z,98835.09
2023-02-14T01:28:39.426Z,98841.31
2023-02-14T01:31:11.893Z,98835.22
2023-02-14T01:33:43.252Z,98833.13
2023-02-14T01:36:22.773Z,98834.13
2023-02-14T01:38:53.142Z,98832.91
2023-02-14T01:41:25.947Z,98825.44
2023-02-14T01:44:15.855Z,98823.06
2023-02-14T01:46:45.030Z,98825.13
2023-02-14T01:49:21.721Z,98823.94
2023-02-14T01:52:04.309Z,98813.97
2023-02-14T01:54:34.089Z,98814.56
2023-02-14T01:57:06.670Z,98812.19
2023-02-14T01:59:38.531Z,98813.78
2023-02-14T02:02:08.546Z,98815.56
2023-02-14T02:04:41.800Z,98821.59
2023-02-14T02:07:17.665Z,98822.19
2023-02-14T02:09:49.298Z,98810.41
2023-02-14T02:12:18.485Z,98806.78
2023-02-14T02:14:47.540Z,98807.06
2023-02-14T02:17:30.620Z,98809.31
2023-02-14T02:20:15.820Z,98816.06
2023-02-14T02:23:09.456Z,98801.16
2023-02-14T02:25:36.119Z,98800.31
2023-02-14T02:28:17.637Z,98794.69
2023-02-14T02:31:03.221Z,98792.38
2023-02-14T02:33:32.627Z,98787.69
2023-02-14T02:36:19.170Z,98781.91
2023-02-14T02:38:55.349Z,98782.59
2023-02-14T02:41:31.027Z,98768.38
2023-02-14T02:44:15.904Z,98770.28
2023-02-14T02:47:01.367Z,98771.38
2023-02-14T02:50:11.846Z,98772.03
2023-02-14T02:53:03.361Z,98775.41
2023-02-14T02:56:01.898Z,98779.25
2023-02-14T02:59:02.445Z,98773.63
2023-02-14T03:01:41.433Z,98774.50
2023-02-14T03:04:30.582Z,98773.72
2023-02-14T03:06:59.123Z,98777.81
2023-02-14T03:09:25.589Z,98784.59
2023-02-14T03:12:18.278Z,98779.84
2023-02-14T03:14:57.858Z,98786.28
2023-02-14T03:17:36.376Z,98778.41
2023-02-14T03:20:29.549Z,98780.16
2023-02-14T03:23:11.171Z,98778.63
2023-02-14T03:26:06.257Z,98779.38
2023-02-14T03:28:47.481Z,98774.13
2023-02-14T03:31:22.862Z,98773.25
2023-02-14T03:34:17.581Z,98771.69
2023-02-14T03:37:07.382Z,98775.44
2023-02-14T03:39:33.835Z,98766.34
2023-02-14T03:42:09.726Z,98770.75
2023-02-14T03:44:39.763Z,98769.88
2023-02-14T03:47:13.331Z,98772.53
2023-02-14T03:49:48.774Z,98765.72
2023-02-14T03:52:17.012Z,98770.97
2023-02-14T03:54:46.648Z,98772.41
2023-02-14T03:57:32.883Z,98775.06
2023-02-14T04:00:02.619Z,98773.91
2023-02-14T04:02:41.580Z,98777.31
2023-02-14T04:05:15.878Z,98775.06
2023-02-14T04:07:47.740Z,98775.66
2023-02-14T04:10:20.124Z,98787.19
2023-02-14T04:12:47.028Z,98783.06
2023-02-14T04:15:14.680Z,98774.06
2023-02-14T04:18:00.195Z,98779.19
2023-02-14T04:20:27.842Z,98781.72
2023-02-14T04:22:55.595Z,98781.84
2023-02-14T04:25:23.865Z,98779.84
2023-02-14T04:27:50.455Z,98774.72
2023-02-14T04:30:18.153Z,98773.41
2023-02-14T04:32:47.051Z,98764.78
2023-02-14T04:35:13.800Z,98768.19
2023-02-14T04:37:40.568Z,98759.59
2023-02-14T04:40:10.487Z,98766.50
2023-02-14T04:42:37.048Z,98765.75
2023-02-14T04:45:06.214Z,98764.59
2023-02-14T04:47:32.796Z,98764.00
2023-02-14T04:50:01.587Z,98752.72
2023-02-14T04:52:28.214Z,98750.53
2023-02-14T04:54:57.039Z,98748.91
2023-02-14T04:57:23.626Z,98755.31
2023-02-14T04:59:52.405Z,98753.94
2023-02-14T05:02:19.001Z,98761.94
2023-02-14T05:04:50.346Z,98752.72
2023-02-14T05:07:19.387Z,98758.78
2023-02-14T05:09:50.832Z,98759.28
2023-02-14T05:12:17.519Z,98752.84
2023-02-14T05:14:46.858Z,98764.00
2023-02-14T05:17:16.875Z,98756.38
2023-02-14T05:19:43.431Z,98763.16
2023-02-14T05:22:10.101Z,98762.47
2023-02-14T05:24:36.682Z,98765.03
2023-02-14T05:27:03.369Z,98768.88
2023-02-14T05:29:32.135Z,98769.28
2023-02-14T05:31:58.806Z,98771.44
2023-02-14T05:34:25.427Z,98773.84
2023-02-14T05:36:52.025Z,98774.41
2023-02-14T05:39:18.610Z,98777.19
2023-02-14T05:41:47.627Z,98774.13
2023-02-14T05:44:19.181Z,98777.28
2023-02-14T05:46:48.148Z,98786.53
2023-02-14T05:49:14.804Z,98782.28
2023-02-14T05:51:41.381Z,98784.06
2023-02-14T05:54:10.024Z,98786.22
2023-02-14T05:56:42.317Z,98785.75
2023-02-14T05:59:08.902Z,98787.81
2023-02-14T06:01:37.615Z,98789.88
2023-02-14T06:04:07.215Z,98788.78
2023-02-14T06:06:36.843Z,98785.44
2023-02-14T06:09:03.574Z,98789.59
2023-02-14T06:11:32.618Z,98794.78
2023-02-14T06:13:59.174Z,98799.41
2023-02-14T06:16:25.786Z,98795.09
2023-02-14T06:18:52.328Z,98807.69
2023-02-14T06:21:18.844Z,98798.28
2023-02-14T06:23:45.384Z,98803.63
2023-02-14T06:26:14.431Z,98806.41
2023-02-14T06:28:41.075Z,98804.03
2023-02-14T06:31:07.729Z,98805.41
2023-02-14T06:33:36.516Z,98803.16
2023-02-14T06:36:03.099Z,98808.28
2023-02-14T06:38:31.820Z,98806.50
2023-02-14T06:41:13.150Z,98816.38
2023-02-14T06:43:39.731Z,98814.13
2023-02-14T06:46:09.059Z,98814.44
2023-02-14T06:48:38.076Z,98808.31
2023-02-14T06:51:09.998Z,98798.72
2023-02-14T06:53:39.031Z,98806.72
2023-02-14T06:56:05.930Z,98798.13
2023-02-14T06:58:40.290Z,98799.72
2023-02-14T07:01:09.094Z,98801.19
2023-02-14T07:03:35.660Z,98803.25
2023-02-14T07:06:02.398Z,98806.13
2023-02-14T07:08:28.977Z,98812.91
2023-02-14T07:11:02.314Z,98815.88
2023-02-14T07:13:32.176Z,98807.69
2023-02-14T07:16:01.505Z,98811.47
2023-02-14T07:18:31.635Z,98813.41
2023-02-14T07:21:00.885Z,98809.72
2023-02-14T07:23:30.074Z,98809.78
2023-02-14T07:25:58.828Z,98805.41
2023-02-14T07:28:25.354Z,98808.72
2023-02-14T07:30:54.718Z,98810.47
2023-02-14T07:33:21.298Z,98808.72
2023-02-14T07:35:50.160Z,98816.56
2023-02-14T07:38:16.666Z,98816.28
2023-02-14T07:40:43.233Z,98811.44
2023-02-14T07:43:10.167Z,98813.53
2023-02-14T07:45:39.121Z,98815.06
2023-02-14T07:48:05.965Z,98811.94
2023-02-14T07:50:34.868Z,98811.81
2023-02-14T07:53:01.464Z,98817.44
2023-02-14T07:55:30.859Z,98813.59
2023-02-14T07:57:59.512Z,98819.38
2023-02-14T08:00:26.391Z,98812.25
2023-02-14T08:02:53.203Z,98806.75
2023-02-14T08:05:22.674Z,98807.75
2023-02-14T08:07:51.475Z,98798.75
2023-02-14T08:10:20.614Z,98800.19
2023-02-14T08:12:59.126Z,98806.00
2023-02-14T08:15:53.903Z,98800.88
2023-02-14T08:18:23.182Z,98799.34
2023-02-14T08:20:50.066Z,98790.44
2023-02-14T08:23:18.740Z,98791.22
2023-02-14T08:25:48.206Z,98785.94
2023-02-14T08:28:22.205Z,98793.28
2023-02-14T08:30:51.261Z,98791.47
2023-02-14T08:33:23.373Z,98791.84
2023-02-14T08:35:52.047Z,98787.09
2023-02-14T08:38:22.098Z,98796.34
2023-02-14T08:40:48.784Z,98795.34
2023-02-14T08:43:18.119Z,98788.78
2023-02-14T08:45:44.985Z,98792.94
2023-02-14T08:48:18.078Z,98785.41
2023-02-14T08:50:44.649Z,98791.00
2023-02-14T08:53:17.104Z,98788.78
2023-02-14T08:55:43.714Z,98788.19
2023-02-14T08:58:13.234Z,98791.59
2023-02-14T09:00:40.093Z,98790.31
2023-02-14T09:03:10.638Z,98787.09
2023-02-14T09:05:37.252Z,98788.81
2023-02-14T09:08:03.957Z,98790.16
2023-02-14T09:10:32.609Z,98796.16
2023-02-14T09:13:04.336Z,98791.69
2023-02-14T09:15:33.186Z,98786.13
2023-02-14T09:18:01.899Z,98783.97
2023-02-14T09:20:28.420Z,98781.50
2023-02-14T09:22:58.750Z,98776.50
2023-02-14T09:25:25.290Z,98777.53
2023-02-14T09:27:57.158Z,98772.66
2023-02-14T09:30:26.205Z,98769.16
2023-02-14T09:32:55.072Z,98770.03
2023-02-14T09:35:24.078Z,98773.28
2023-02-14T09:37:52.730Z,98766.16
2023-02-14T09:40:20.438Z,98757.22
2023-02-14T09:43:18.463Z,98761.44
2023-02-14T09:45:54.818Z,98763.69
2023-02-14T09:48:34.023Z,98760.72
2023-02-14T09:51:08.450Z,98763.75
2023-02-14T09:53:42.174Z,98762.19
2023-02-14T09:56:17.635Z,98754.81
2023-02-14T09:59:14.828Z,98764.91
2023-02-14T10:01:48.085Z,98759.28
2023-02-14T10:04:40.767Z,98762.06
2023-02-14T10:07:22.444Z,98759.97
2023-02-14T10:10:02.754Z,98759.59
2023-02-14T10:12:37.895Z,98761.44
2023-02-14T10:15:23.961Z,98762.56
2023-02-14T10:18:05.900Z,98760.47
2023-02-14T10:20:35.250Z,98757.72
2023-02-14T10:23:22.762Z,98750.19
2023-02-14T10:25:54.083Z,98751.25
2023-02-14T10:28:30.374Z,98754.41
2023-02-14T10:31:04.402Z,98751.59
2023-02-14T10:33:38.835Z,98746.91
2023-02-14T10:36:18.713Z,98745.63
2023-02-14T10:38:57.677Z,98740.28
2023-02-14T10:41:42.258Z,98745.75
2023-02-14T10:44:24.023Z,98739.66
2023-02-14T10:46:59.527Z,98730.69
2023-02-14T10:49:44.028Z,98728.22
2023-02-14T10:52:22.844Z,98725.06
2023-02-14T10:54:58.215Z,98714.88
2023-02-14T10:57:51.051Z,98716.13
2023-02-14T11:00:25.813Z,98712.84
2023-02-14T11:03:00.088Z,98708.59
2023-02-14T11:05:31.663Z,98708.75
2023-02-14T11:08:01.977Z,98702.94
2023-02-14T11:10:35.734Z,98700.41
2023-02-14T11:13:02.312Z,98697.91
2023-02-14T11:15:42.259Z,98696.31
2023-02-14T11:18:36.108Z,98685.31
2023-02-14T11:21:17.775Z,98682.94
2023-02-14T11:23:48.894Z,98682.94
2023-02-14T11:26:34.949Z,98678.38
2023-02-14T11:29:07.166Z,98665.34
2023-02-14T11:31:36.706Z,98664.03
2023-02-14T11:34:20.857Z,98662.16
2023-02-14T11:36:49.862Z,98658.88
2023-02-14T11:39:31.284Z,98665.81
2023-02-14T11:42:01.110Z,98659.50
2023-02-14T11:44:29.911Z,98651.16
2023-02-14T11:47:18.096Z,98655.88
2023-02-14T11:50:17.839Z,98645.94
2023-02-14T11:52:56.690Z,98633.81
2023-02-14T11:55:26.077Z,98636.81
2023-02-14T11:57:57.044Z,98630.97
2023-02-14T12:00:27.165Z,98630.53
2023-02-14T12:02:57.939Z,98630.97
2023-02-14T12:05:35.559Z,98627.97
2023-02-14T12:08:08.075Z,98626.53
2023-02-14T12:10:42.050Z,98627.38
2023-02-14T12:13:08.605Z,98621.19
2023-02-14T12:15:44.067Z,98625.44
2023-02-14T12:18:29.226Z,98614.66
2023-02-14T12:20:59.881Z,98609.66
2023-02-14T12:23:38.815Z,98615.41
2023-02-14T12:26:25.531Z,98611.63
2023-02-14T12:29:14.319Z,98606.13
2023-02-14T12:31:43.125Z,98609.09
2023-02-14T12:34:13.263Z,98596.63
2023-02-14T12:37:06.854Z,98589.56
2023-02-14T12:40:05.784Z,98588.97
2023-02-14T12:43:04.544Z,98585.50
2023-02-14T12:46:08.754Z,98583.22
2023-02-14T12:48:51.700Z,98575.88
2023-02-14T12:51:34.647Z,98578.19
2023-02-14T12:54:25.910Z,98572.59
2023-02-14T12:57:08.299Z,98563.78
2023-02-14T13:00:05.884Z,98562.97
2023-02-14T13:02:41.427Z,98556.91
2023-02-14T13:05:31.804Z,98550.50
2023-02-14T13:08:23.808Z,98545.84
2023-02-14T13:11:02.068Z,98547.38
2023-02-14T13:13:34.882Z,98536.53
2023-02-14T13:16:32.385Z,98532.47
2023-02-14T13:19:14.403Z,98541.13
2023-02-14T13:21:45.294Z,98533.16
2023-02-14T13:24:25.632Z,98534.03
2023-02-14T13:26:56.489Z,98527.16
2023-02-14T13:29:27.431Z,98529.28
2023-02-14T13:31:58.803Z,98521.03
2023-02-14T13:34:44.384Z,98519.06
2023-02-14T13:37:15.934Z,98517.84
2023-02-14T13:39:48.991Z,98518.84
2023-02-14T13:42:50.714Z,98513.69
2023-02-14T13:45:29.518Z,98505.75
2023-02-14T13:48:19.722Z,98497.41
2023-02-14T13:51:02.438Z,98497.94
2023-02-14T13:53:32.093Z,98496.63
2023-02-14T13:56:01.649Z,98494.38
2023-02-14T13:58:30.944Z,98483.75
2023-02-14T14:00:57.721Z,98488.78
2023-02-14T14:03:27.744Z,98487.41
2023-02-14T14:06:10.928Z,98483.28
2023-02-14T14:08:37.640Z,98484.91
2023-02-14T14:11:11.640Z,98480.91
2023-02-14T14:13:43.170Z,98476.50
2023-02-14T14:16:28.166Z,98478.59
2023-02-14T14:18:58.764Z,98476.06
2023-02-14T14:21:31.766Z,98476.31
2023-02-14T14:24:20.604Z,98479.06
2023-02-14T14:26:48.866Z,98473.69
2023-02-14T14:29:23.402Z,98471.25
2023-02-14T14:31:55.841Z,98469.91
2023-02-14T14:34:29.945Z,98462.13
2023-02-14T14:37:10.757Z,98473.97
2023-02-14T14:39:40.590Z,98458.94
2023-02-14T14:42:15.214Z,98464.81
2023-02-14T14:45:02.022Z,98471.59
2023-02-14T14:47:37.642Z,98475.19
2023-02-14T14:50:07.726Z,98469.22
2023-02-14T14:52:41.336Z,98466.72
2023-02-14T14:55:19.721Z,98467.06
2023-02-14T14:58:03.796Z,98461.41
2023-02-14T15:00:37.245Z,98455.69
2023-02-14T15:03:14.796Z,98451.88
2023-02-14T15:05:47.005Z,98451.78
2023-02-14T15:08:23.334Z,98456.72
2023-02-14T15:10:58.686Z,98450.00
2023-02-14T15:13:50.618Z,98445.22
2023-02-14T15:16:21.493Z,98444.16
2023-02-14T15:18:49.570Z,98449.34
2023-02-14T15:21:16.896Z,98444.22
2023-02-14T15:23:44.126Z,98445.91
2023-02-14T15:26:18.075Z,98445.22
2023-02-14T15:28:54.053Z,98443.47
2023-02-14T15:31:20.925Z,98448.50
2023-02-14T15:33:50.276Z,98449.63
2023-02-14T15:36:21.172Z,98443.13
2023-02-14T15:38:51.038Z,98447.06
2023-02-14T15:41:20.086Z,98446.81
2023-02-14T15:43:54.090Z,98442.34
2023-02-14T15:46:33.240Z,98442.16
2023-02-14T15:49:01.397Z,98443.25
2023-02-14T15:51:37.437Z,98441.81
2023-02-14T15:54:18.403Z,98438.22
2023-02-14T15:56:49.376Z,98440.69
2023-02-14T15:59:22.796Z,98434.88
2023-02-14T16:01:53.895Z,98432.06
2023-02-14T16:04:26.085Z,98434.53
2023-02-14T16:07:20.572Z,98443.03
2023-02-14T16:09:48.368Z,98440.69
2023-02-14T16:12:31.431Z,98434.63
2023-02-14T16:15:20.545Z,98430.81
2023-02-14T16:17:50.923Z,98430.25
2023-02-14T16:20:23.700Z,98427.78
2023-02-14T16:22:50.896Z,98429.44
2023-02-14T16:25:22.994Z,98438.78
2023-02-14T16:27:54.377Z,98426.78
2023-02-14T16:30:23.811Z,98424.97
2023-02-14T16:32:52.596Z,98431.06
2023-02-14T16:35:21.770Z,98435.88
2023-02-14T16:37:51.679Z,98432.03
2023-02-14T16:40:20.950Z,98435.31
2023-02-14T16:42:49.976Z,98437.75
2023-02-14T16:45:18.230Z,98432.94
2023-02-14T16:47:49.178Z,98437.69
2023-02-14T16:50:16.219Z,98431.53
2023-02-14T16:52:46.627Z,98438.34
2023-02-14T16:55:20.244Z,98441.66
2023-02-14T16:57:53.366Z,98439.38
2023-02-14T17:00:22.862Z,98449.75
2023-02-14T17:02:49.958Z,98448.66
2023-02-14T17:05:19.314Z,98445.69
2023-02-14T17:07:45.831Z,98440.72
2023-02-14T17:10:18.360Z,98456.91
2023-02-14T17:12:53.160Z,98450.78
2023-02-14T17:15:26.532Z,98459.91
2023-02-14T17:17:59.393Z,98454.28
2023-02-14T17:20:31.015Z,98458.06
2023-02-14T17:22:58.309Z,98462.13
2023-02-14T17:25:27.389Z,98465.59
2023-02-14T17:27:56.513Z,98468.28
2023-02-14T17:30:26.175Z,98474.88
2023-02-14T17:32:52.706Z,98469.69
2023-02-14T17:35:22.016Z,98472.50
2023-02-14T17:37:48.555Z,98467.16
2023-02-14T17:40:17.613Z,98473.44
2023-02-14T17:42:44.975Z,98483.16
2023-02-14T17:45:14.049Z,98474.72
2023-02-14T17:47:45.208Z,98476.13
2023-02-14T17:50:13.191Z,98473.75
2023-02-14T17:52:42.035Z,98470.00
2023-02-14T17:55:11.430Z,98466.53
2023-02-14T17:57:40.865Z,98463.72
2023-02-14T18:00:11.818Z,98468.28
2023-02-14T18:02:38.845Z,98470.28
2023-02-14T18:05:08.189Z,98472.66
2023-02-14T18:07:38.189Z,98470.00
2023-02-14T18:10:05.942Z,98464.63
2023-02-14T18:12:32.825Z,98471.09
2023-02-14T18:14:59.618Z,98466.06
2023-02-14T18:17:28.657Z,98464.19
2023-02-14T18:19:57.420Z,98460.72
2023-02-14T18:22:24.846Z,98468.72
2023-02-14T18:24:51.416Z,98463.56
2023-02-14T18:27:18.001Z,98457.91
2023-02-14T18:29:44.605Z,98455.84
2023-02-14T18:32:16.046Z,98455.38
2023-02-14T18:34:42.575Z,98457.25
2023-02-14T18:37:15.187Z,98458.38
2023-02-14T18:39:41.843Z,98455.06
2023-02-14T18:42:08.595Z,98461.50
2023-02-14T18:44:35.485Z,98454.28
2023-02-14T18:47:06.462Z,98453.00
2023-02-14T18:49:35.299Z,98450.66
2023-02-14T18:52:01.941Z,98452.41
2023-02-14T18:54:32.079Z,98448.78
2023-02-14T18:56:58.688Z,98456.00
2023-02-14T18:59:25.203Z,98447.69
2023-02-14T19:01:54.541Z,98440.78
2023-02-14T19:04:24.099Z,98455.41
2023-02-14T19:06:53.262Z,98453.97
2023-02-14T19:09:22.358Z,98454.44
2023-02-14T19:11:51.278Z,98440.63
2023-02-14T19:14:18.367Z,98443.91
2023-02-14T19:16:51.947Z,98443.00
2023-02-14T19:19:22.818Z,98443.91
2023-02-14T19:21:53.077Z,98437.97
2023-02-14T19:24:20.240Z,98442.03
2023-02-14T19:26:47.262Z,98437.66
2023-02-14T19:29:18.257Z,98442.03
2023-02-14T19:31:48.753Z,98439.97
2023-02-14T19:34:29.679Z,98445.00
2023-02-14T19:36:58.856Z,98442.97
2023-02-14T19:39:25.704Z,98446.09
2023-02-14T19:41:52.363Z,98432.47
2023-02-14T19:44:21.083Z,98434.16
2023-02-14T19:46:51.040Z,98432.16
2023-02-14T19:49:19.776Z,98434.97
2023-02-14T19:51:52.342Z,98430.28
2023-02-14T19:54:25.629Z,98429.97
2023-02-14T19:56:53.872Z,98429.16
2023-02-14T19:59:21.786Z,98424.16
2023-02-14T20:01:56.447Z,98424.31
2023-02-14T20:04:28.545Z,98425.72
2023-02-14T20:06:56.119Z,98421.16
2023-02-14T20:09:23.592Z,98421.94
2023-02-14T20:11:57.792Z,98416.13
2023-02-14T20:14:30.511Z,98419.28
2023-02-14T20:17:00.316Z,98418.19
2023-02-14T20:19:35.704Z,98419.72
2023-02-14T20:22:04.764Z,98421.00
2023-02-14T20:24:32.463Z,98411.44
2023-02-14T20:27:00.469Z,98411.28
2023-02-14T20:29:27.336Z,98414.41
2023-02-14T20:32:03.313Z,98413.31
2023-02-14T20:34:29.952Z,98419.72
2023-02-14T20:36:59.313Z,98415.97
2023-02-14T20:39:36.576Z,98406.22
2023-02-14T20:42:04.222Z,98405.31
2023-02-14T20:44:30.818Z,98399.50
2023-02-14T20:46:57.593Z,98404.53
2023-02-14T20:49:26.041Z,98396.97
2023-02-14T20:51:56.025Z,98396.97
2023-02-14T20:54:25.680Z,98397.47
2023-02-14T20:56:55.136Z,98393.03
2023-02-14T20:59:27.150Z,98390.69
2023-02-14T21:01:55.372Z,98390.06
2023-02-14T21:04:22.963Z,98390.22
2023-02-14T21:06:49.612Z,98390.56
2023-02-14T21:09:18.510Z,98387.56
2023-02-14T21:11:45.159Z,98384.44
2023-02-14T21:14:14.288Z,98388.50
2023-02-14T21:16:43.220Z,98389.63
2023-02-14T21:19:09.845Z,98383.81
2023-02-14T21:21:39.710Z,98383.16
2023-02-14T21:24:14.680Z,98378.78
2023-02-14T21:26:41.741Z,98375.78
2023-02-14T21:29:11.342Z,98375.31
2023-02-14T21:31:38.654Z,98378.59
2023-02-14T21:34:08.124Z,98380.19
2023-02-14T21:36:37.956Z,98373.28
2023-02-14T21:39:07.683Z,98375.47
2023-02-14T21:41:35.230Z,98367.47
2023-02-14T21:44:07.655Z,98372.19
2023-02-14T21:46:38.872Z,98380.16
2023-02-14T21:49:24.580Z,98373.84
2023-02-14T21:51:51.300Z,98382.19
2023-02-14T21:54:18.000Z,98375.78
2023-02-14T21:56:44.817Z,98376.25
2023-02-14T21:59:11.647Z,98377.66
2023-02-14T22:01:42.528Z,98372.19
2023-02-14T22:04:11.431Z,98371.56
2023-02-14T22:06:40.281Z,98370.13
2023-02-14T22:09:07.506Z,98367.00
2023-02-14T22:11:35.305Z,98372.19
2023-02-14T22:14:04.665Z,98362.47
2023-02-14T22:16:31.355Z,98369.69
2023-02-14T22:19:00.236Z,98363.72
2023-02-14T22:21:33.354Z,98363.41
2023-02-14T22:24:01.352Z,98362.63
2023-02-14T22:26:34.649Z,98355.41
2023-02-14T22:29:02.496Z,98353.19
2023-02-14T22:31:33.435Z,98357.59
2023-02-14T22:34:03.079Z,98357.75
2023-02-14T22:36:31.836Z,98344.88
2023-02-14T22:39:00.715Z,98344.09
2023-02-14T22:41:30.065Z,98346.63
2023-02-14T22:43:58.903Z,98349.13
2023-02-14T22:46:28.082Z,98348.31
2023-02-14T22:48:56.262Z,98354.31
2023-02-14T22:51:24.201Z,98349.91
2023-02-14T22:53:53.345Z,98355.72
2023-02-14T22:56:25.601Z,98352.25
2023-02-14T22:58:56.901Z,98347.88
2023-02-14T23:01:31.278Z,98353.19
2023-02-14T23:04:00.150Z,98360.25
2023-02-14T23:06:33.701Z,98356.03
2023-02-14T23:09:05.993Z,98358.38
2023-02-14T23:11:36.523Z,98354.75
2023-02-14T23:14:24.408Z,98348.63
2023-02-14T23:17:10.210Z,98351.31
2023-02-14T23:19:56.052Z,98331.84
2023-02-14T23:22:34.650Z,98341.28
2023-02-14T23:25:07.636Z,98337.66
2023-02-14T23:27:43.525Z,98334.69
2023-02-14T23:30:15.113Z,98332.63
2023-02-14T23:32:42.469Z,98337.34
2023-02-14T23:35:12.095Z,98340.50
2023-02-14T23:37:41.782Z,98341.41
2023-02-14T23:40:11.772Z,98334.38
2023-02-14T23:42:38.319Z,98334.03
2023-02-14T23:45:24.180Z,98340.16
2023-02-14T23:47:52.848Z,98334.50
2023-02-14T23:50:19.387Z,98331.00
2023-02-14T23:52:48.886Z,98328.31
2023-02-14T23:55:15.402Z,98329.06
2023-02-14T23:57:42.017Z,98329.56
